createdAt,value
2023-03-31T00:00:12.099Z,-0.10
2023-03-31T00:02:41.854Z,-0.15
2023-03-31T00:05:10.152Z,-0.17
2023-03-31T00:07:38.239Z,-0.19
2023-03-31T00:10:17.104Z,-0.23
2023-03-31T00:12:45.047Z,-0.26
2023-03-31T00:15:11.859Z,-0.26
2023-03-31T00:17:38.545Z,-0.26
2023-03-31T00:20:06.197Z,-0.27
2023-03-31T00:22:32.879Z,-0.25
2023-03-31T00:24:59.556Z,-0.23
2023-03-31T00:27:28.338Z,-0.22
2023-03-31T00:29:55.742Z,-0.22
2023-03-31T00:32:22.677Z,-0.25
2023-03-31T00:34:49.352Z,-0.26
2023-03-31T00:37:16.101Z,-0.30
2023-03-31T00:39:43.400Z,-0.32
2023-03-31T00:42:13.197Z,-0.29
2023-03-31T00:45:31.816Z,-0.31
2023-03-31T00:48:11.340Z,-0.32
2023-03-31T00:50:49.026Z,-0.36
2023-03-31T00:53:18.503Z,-0.36
2023-03-31T00:55:53.024Z,-0.37
2023-03-31T00:58:21.902Z,-0.40
2023-03-31T01:00:52.984Z,-0.44
2023-03-31T01:03:22.883Z,-0.46
2023-03-31T01:05:54.937Z,-0.44
2023-03-31T01:08:26.296Z,-0.43
2023-03-31T01:11:03.393Z,-0.47
2023-03-31T01:13:32.102Z,-0.49
2023-03-31T01:15:58.791Z,-0.51
2023-03-31T01:18:25.782Z,-0.53
2023-03-31T01:21:10.764Z,-0.54
2023-03-31T01:24:05.302Z,-0.52
2023-03-31T01:26:47.054Z,-0.50
2023-03-31T01:29:41.517Z,-0.54
2023-03-31T01:32:55.518Z,-0.57
2023-03-31T01:36:01.501Z,-0.59
2023-03-31T01:39:07.271Z,-0.59
2023-03-31T01:41:49.152Z,-0.60
2023-03-31T01:44:18.824Z,-0.60
2023-03-31T01:47:07.054Z,-0.60
2023-03-31T01:49:57.460Z,-0.61
2023-03-31T01:52:30.285Z,-0.60
2023-03-31T01:55:34.268Z,-0.58
2023-03-31T01:58:08.572Z,-0.61
2023-03-31T02:00:42.170Z,-0.63
2023-03-31T02:03:19.405Z,-0.63
2023-03-31T02:06:03.122Z,-0.63
2023-03-31T02:08:38.198Z,-0.64
2023-03-31T02:11:05.000Z,-0.65
2023-03-31T02:13:34.630Z,-0.69
2023-03-31T02:16:07.446Z,-0.70
2023-03-31T02:18:38.376Z,-0.69
2023-03-31T02:21:08.107Z,-0.69
2023-03-31T02:23:37.917Z,-0.67
2023-03-31T02:26:13.549Z,-0.69
2023-03-31T02:28:40.858Z,-0.68
2023-03-31T02:31:26.006Z,-0.68
2023-03-31T02:33:53.325Z,-0.68
2023-03-31T02:36:21.632Z,-0.68
2023-03-31T02:39:08.601Z,-0.69
2023-03-31T02:41:35.966Z,-0.71
2023-03-31T02:44:03.001Z,-0.70
2023-03-31T02:46:30.377Z,-0.70
2023-03-31T02:49:01.282Z,-0.72
2023-03-31T02:51:46.931Z,-0.74
2023-03-31T02:54:19.246Z,-0.73
2023-03-31T02:57:02.352Z,-0.77
2023-03-31T02:59:44.278Z,-0.76
2023-03-31T03:02:34.980Z,-0.78
2023-03-31T03:05:08.976Z,-0.79
2023-03-31T03:07:56.013Z,-0.79
2023-03-31T03:10:37.781Z,-0.78
2023-03-31T03:13:33.539Z,-0.79
2023-03-31T03:16:14.070Z,-0.76
2023-03-31T03:18:40.950Z,-0.75
2023-03-31T03:21:07.597Z,-0.74
2023-03-31T03:23:34.264Z,-0.72
2023-03-31T03:26:01.234Z,-0.73
2023-03-31T03:28:27.931Z,-0.74
2023-03-31T03:30:54.642Z,-0.73
2023-03-31T03:33:25.089Z,-0.74
2023-03-31T03:35:52.006Z,-0.75
2023-03-31T03:38:18.728Z,-0.74
2023-03-31T03:40:45.988Z,-0.70
2023-03-31T03:43:13.322Z,-0.70
2023-03-31T03:45:39.956Z,-0.72
2023-03-31T03:48:06.872Z,-0.73
2023-03-31T03:50:36.547Z,-0.75
2023-03-31T03:53:03.250Z,-0.76
2023-03-31T03:55:29.924Z,-0.78
2023-03-31T03:57:56.609Z,-0.79
2023-03-31T04:00:23.566Z,-0.82
2023-03-31T04:02:50.303Z,-0.81
2023-03-31T04:05:17.298Z,-0.83
2023-03-31T04:07:43.958Z,-0.82
2023-03-31T04:10:11.026Z,-0.78
2023-03-31T04:12:37.902Z,-0.78
2023-03-31T04:15:08.105Z,-0.79
2023-03-31T04:17:35.066Z,-0.80
2023-03-31T04:20:13.593Z,-0.79
2023-03-31T04:22:47.034Z,-0.76
2023-03-31T04:25:17.358Z,-0.74
2023-03-31T04:27:55.860Z,-0.76
2023-03-31T04:30:24.660Z,-0.76
2023-03-31T04:33:04.200Z,-0.76
2023-03-31T04:35:52.712Z,-0.79
2023-03-31T04:38:22.061Z,-0.78
2023-03-31T04:40:51.031Z,-0.79
2023-03-31T04:43:19.268Z,-0.76
2023-03-31T04:45:46.132Z,-0.75
2023-03-31T04:48:13.307Z,-0.76
2023-03-31T04:50:40.095Z,-0.78
2023-03-31T04:53:07.136Z,-0.77
2023-03-31T04:55:34.207Z,-0.75
2023-03-31T04:58:01.045Z,-0.75
2023-03-31T05:00:28.973Z,-0.75
2023-03-31T05:02:57.173Z,-0.77
2023-03-31T05:05:23.986Z,-0.77
2023-03-31T05:07:50.903Z,-0.76
2023-03-31T05:10:17.695Z,-0.76
2023-03-31T05:12:44.711Z,-0.73
2023-03-31T05:15:11.645Z,-0.75
2023-03-31T05:17:38.411Z,-0.72
2023-03-31T05:20:06.962Z,-0.68
2023-03-31T05:22:42.573Z,-0.66
2023-03-31T05:25:11.929Z,-0.65
2023-03-31T05:27:38.675Z,-0.65
2023-03-31T05:30:06.174Z,-0.65
2023-03-31T05:32:32.912Z,-0.66
2023-03-31T05:34:59.689Z,-0.65
2023-03-31T05:37:27.367Z,-0.69
2023-03-31T05:39:54.077Z,-0.69
2023-03-31T05:42:21.251Z,-0.71
2023-03-31T05:44:48.026Z,-0.71
2023-03-31T05:47:14.854Z,-0.72
2023-03-31T05:49:41.592Z,-0.74
2023-03-31T05:52:09.239Z,-0.74
2023-03-31T05:54:36.002Z,-0.75
2023-03-31T05:57:03.330Z,-0.72
2023-03-31T05:59:30.171Z,-0.72
2023-03-31T06:01:56.956Z,-0.68
2023-03-31T06:04:24.546Z,-0.65
2023-03-31T06:06:51.324Z,-0.61
2023-03-31T06:09:18.484Z,-0.58
2023-03-31T06:11:45.330Z,-0.55
2023-03-31T06:14:12.143Z,-0.56
2023-03-31T06:16:39.427Z,-0.53
2023-03-31T06:19:06.122Z,-0.49
2023-03-31T06:21:33.117Z,-0.46
2023-03-31T06:24:00.746Z,-0.46
2023-03-31T06:26:27.960Z,-0.44
2023-03-31T06:28:54.835Z,-0.42
2023-03-31T06:31:24.062Z,-0.39
2023-03-31T06:33:51.899Z,-0.34
2023-03-31T06:36:21.487Z,-0.29
2023-03-31T06:38:49.344Z,-0.24
2023-03-31T06:41:17.582Z,-0.19
2023-03-31T06:43:44.868Z,-0.18
2023-03-31T06:46:14.329Z,-0.14
2023-03-31T06:48:42.071Z,-0.10
2023-03-31T06:51:08.969Z,-0.12
2023-03-31T06:53:36.734Z,-0.13
2023-03-31T06:56:04.841Z,-0.14
2023-03-31T06:58:31.956Z,-0.16
2023-03-31T07:00:59.438Z,-0.16
2023-03-31T07:03:26.432Z,-0.12
2023-03-31T07:05:54.680Z,-0.08
2023-03-31T07:08:22.795Z,-0.05
2023-03-31T07:10:54.085Z,-0.02
2023-03-31T07:13:21.005Z,0.06
2023-03-31T07:15:48.909Z,0.12
2023-03-31T07:18:16.702Z,0.17
2023-03-31T07:20:44.181Z,0.19
2023-03-31T07:23:10.988Z,0.26
2023-03-31T07:25:37.678Z,0.31
2023-03-31T07:28:06.061Z,0.38
2023-03-31T07:30:33.399Z,0.39
2023-03-31T07:33:00.649Z,0.41
2023-03-31T07:35:27.471Z,0.47
2023-03-31T07:37:57.996Z,0.53
2023-03-31T07:40:27.170Z,0.59
2023-03-31T07:42:54.627Z,0.61
2023-03-31T07:45:23.464Z,0.58
2023-03-31T07:47:50.577Z,0.61
2023-03-31T07:50:18.162Z,0.65
2023-03-31T07:52:46.898Z,0.77
2023-03-31T07:55:13.975Z,0.85
2023-03-31T07:57:41.593Z,0.93
2023-03-31T08:00:10.959Z,1.02
2023-03-31T08:02:38.140Z,1.10
2023-03-31T08:05:07.323Z,1.21
2023-03-31T08:07:35.762Z,1.29
2023-03-31T08:10:06.016Z,1.34
2023-03-31T08:12:32.894Z,1.43
2023-03-31T08:14:59.611Z,1.55
2023-03-31T08:17:28.875Z,1.65
2023-03-31T08:19:55.555Z,1.73
2023-03-31T08:22:23.509Z,1.85
2023-03-31T08:24:50.295Z,1.95
2023-03-31T08:27:17.181Z,1.99
2023-03-31T08:29:43.935Z,2.07
2023-03-31T08:32:10.745Z,2.13
2023-03-31T08:34:38.176Z,2.19
2023-03-31T08:37:05.927Z,2.26
2023-03-31T08:39:34.223Z,2.26
2023-03-31T08:42:07.612Z,2.23
2023-03-31T08:44:45.816Z,2.23
2023-03-31T08:47:18.236Z,2.31
2023-03-31T09:01:09.575Z,4.22
2023-03-31T09:04:12.459Z,4.52
2023-03-31T09:07:04.914Z,4.69
2023-03-31T09:09:56.408Z,4.70
2023-03-31T09:12:23.030Z,4.63
2023-03-31T09:15:38.978Z,4.44
2023-03-31T09:18:30.110Z,4.32
2023-03-31T09:21:23.117Z,4.22
2023-03-31T09:24:13.145Z,4.16
2023-03-31T09:26:46.785Z,4.06
2023-03-31T09:29:21.107Z,3.96
2023-03-31T09:31:47.862Z,3.92
2023-03-31T09:34:19.367Z,3.82
2023-03-31T09:36:46.437Z,3.78
2023-03-31T09:39:15.152Z,3.71
2023-03-31T09:41:49.468Z,3.61
2023-03-31T09:44:23.989Z,3.55
2023-03-31T09:46:51.924Z,3.52
2023-03-31T09:49:21.819Z,3.51
2023-03-31T09:51:56.869Z,3.49
2023-03-31T09:54:29.476Z,3.54
2023-03-31T09:56:56.174Z,3.63
2023-03-31T09:59:31.750Z,3.68
2023-03-31T10:02:02.746Z,3.69
2023-03-31T10:04:33.974Z,3.74
2023-03-31T10:07:04.172Z,3.84
2023-03-31T10:09:33.669Z,3.91
2023-03-31T10:12:08.325Z,3.86
2023-03-31T10:14:45.995Z,3.92
2023-03-31T10:17:18.658Z,3.95
2023-03-31T10:19:51.351Z,4.09
2023-03-31T10:22:21.263Z,4.28
2023-03-31T10:24:49.994Z,4.40
2023-03-31T10:27:28.786Z,4.43
2023-03-31T10:30:01.421Z,4.45
2023-03-31T10:32:38.351Z,4.40
2023-03-31T10:35:43.614Z,4.34
2023-03-31T10:38:27.930Z,4.33
2023-03-31T10:40:57.567Z,4.32
2023-03-31T10:43:28.978Z,4.25
2023-03-31T10:46:02.997Z,4.15
2023-03-31T10:48:36.066Z,4.21
2023-03-31T10:51:17.594Z,4.31
2023-03-31T10:53:47.142Z,4.38
2023-03-31T10:56:35.104Z,4.43
2023-03-31T10:59:20.491Z,4.46
2023-03-31T11:02:21.247Z,4.59
2023-03-31T11:05:00.137Z,4.77
2023-03-31T11:07:45.666Z,4.84
2023-03-31T11:10:51.296Z,4.94
2023-03-31T11:13:40.510Z,5.08
2023-03-31T11:16:13.038Z,5.14
2023-03-31T11:18:50.607Z,5.23
2023-03-31T11:21:28.054Z,5.32
2023-03-31T11:24:22.277Z,5.36
2023-03-31T11:27:01.686Z,5.42
2023-03-31T11:29:57.723Z,5.36
2023-03-31T11:32:41.761Z,5.39
2023-03-31T11:35:21.409Z,5.46
2023-03-31T11:38:11.789Z,5.59
2023-03-31T11:40:58.271Z,5.75
2023-03-31T11:43:30.017Z,5.86
2023-03-31T11:46:12.388Z,5.95
2023-03-31T11:48:46.185Z,6.05
2023-03-31T11:51:35.341Z,6.01
2023-03-31T11:54:12.131Z,6.03
2023-03-31T11:56:41.256Z,5.98
2023-03-31T11:59:16.008Z,5.93
2023-03-31T12:01:51.558Z,5.83
2023-03-31T12:04:33.797Z,5.80
2023-03-31T12:07:18.739Z,5.80
2023-03-31T12:10:05.592Z,5.70
2023-03-31T12:12:39.711Z,5.57
2023-03-31T12:15:19.406Z,5.45
2023-03-31T12:17:51.126Z,5.34
2023-03-31T12:20:41.382Z,5.26
2023-03-31T12:23:17.535Z,5.27
2023-03-31T12:25:52.538Z,5.20
2023-03-31T12:28:20.441Z,5.26
2023-03-31T12:30:48.252Z,5.32
2023-03-31T12:33:37.508Z,5.36
2023-03-31T12:36:16.589Z,5.33
2023-03-31T12:39:08.872Z,5.23
2023-03-31T12:41:54.272Z,5.15
2023-03-31T12:44:29.958Z,5.01
2023-03-31T12:47:33.832Z,4.87
2023-03-31T12:50:16.491Z,4.74
2023-03-31T12:53:19.917Z,4.62
2023-03-31T12:55:54.295Z,4.53
2023-03-31T12:58:34.957Z,4.56
2023-03-31T13:01:06.623Z,4.62
2023-03-31T13:03:53.988Z,4.70
2023-03-31T13:06:29.804Z,4.77
2023-03-31T13:09:00.935Z,4.84
2023-03-31T13:11:33.298Z,4.88
2023-03-31T13:14:02.587Z,4.89
2023-03-31T13:16:35.095Z,4.87
2023-03-31T13:19:02.083Z,4.85
2023-03-31T13:21:28.860Z,4.76
2023-03-31T13:24:01.518Z,4.67
2023-03-31T13:26:34.253Z,4.59
2023-03-31T13:29:14.504Z,4.56
2023-03-31T13:32:02.881Z,4.43
2023-03-31T13:34:51.284Z,4.34
2023-03-31T13:37:45.261Z,4.32
2023-03-31T13:40:33.395Z,4.33
2023-03-31T13:43:32.506Z,4.23
2023-03-31T13:46:27.106Z,4.10
2023-03-31T13:49:22.194Z,3.90
2023-03-31T13:52:13.441Z,3.80
2023-03-31T13:55:06.091Z,3.75
2023-03-31T13:57:38.822Z,3.73
2023-03-31T14:00:43.000Z,3.67
2023-03-31T14:03:28.741Z,3.58
2023-03-31T14:06:02.357Z,3.50
2023-03-31T14:08:44.238Z,3.45
2023-03-31T14:11:25.690Z,3.40
2023-03-31T14:14:15.746Z,3.42
2023-03-31T14:16:45.803Z,3.39
2023-03-31T14:19:29.281Z,3.38
2023-03-31T14:22:08.116Z,3.37
2023-03-31T14:25:01.245Z,3.38
2023-03-31T14:27:58.512Z,3.30
2023-03-31T14:30:38.537Z,3.22
2023-03-31T14:33:40.925Z,3.24
2023-03-31T14:36:22.363Z,3.24
2023-03-31T14:38:49.056Z,3.29
2023-03-31T14:41:21.208Z,3.30
2023-03-31T14:43:51.401Z,3.36
2023-03-31T14:46:22.252Z,3.39
2023-03-31T14:48:51.281Z,3.45
2023-03-31T14:51:30.867Z,3.50
2023-03-31T14:54:01.749Z,3.54
2023-03-31T14:56:40.608Z,3.60
2023-03-31T14:59:08.549Z,3.64
2023-03-31T15:01:38.463Z,3.63
2023-03-31T15:04:11.324Z,3.63
2023-03-31T15:06:40.029Z,3.60
2023-03-31T15:09:07.987Z,3.55
2023-03-31T15:11:35.153Z,3.44
2023-03-31T15:14:05.579Z,3.33
2023-03-31T15:16:43.335Z,3.28
2023-03-31T15:19:24.953Z,3.23
2023-03-31T15:22:02.126Z,3.18
2023-03-31T15:24:29.872Z,3.16
2023-03-31T15:27:06.237Z,3.22
2023-03-31T15:29:41.564Z,3.35
2023-03-31T15:32:18.844Z,3.47
2023-03-31T15:34:46.590Z,3.52
2023-03-31T15:37:13.525Z,3.53
2023-03-31T15:39:47.394Z,3.53
2023-03-31T15:42:14.364Z,3.51
2023-03-31T15:44:53.720Z,3.49
2023-03-31T15:47:25.354Z,3.50
2023-03-31T15:50:13.272Z,3.47
2023-03-31T15:52:47.989Z,3.44
2023-03-31T15:55:23.785Z,3.42
2023-03-31T15:57:51.865Z,3.36
2023-03-31T16:00:33.566Z,3.31
2023-03-31T16:03:04.067Z,3.25
2023-03-31T16:05:53.668Z,3.19
2023-03-31T16:08:37.573Z,3.08
2023-03-31T16:11:13.534Z,3.04
2023-03-31T16:13:44.759Z,3.01
2023-03-31T16:16:15.623Z,3.01
2023-03-31T16:19:04.147Z,2.98
2023-03-31T16:21:40.186Z,2.94
2023-03-31T16:24:07.244Z,2.94
2023-03-31T16:26:34.583Z,2.96
2023-03-31T16:29:01.576Z,2.94
2023-03-31T16:31:39.561Z,2.85
2023-03-31T16:34:11.167Z,2.74
2023-03-31T16:36:37.982Z,2.69
2023-03-31T16:39:05.928Z,2.61
2023-03-31T16:41:33.940Z,2.54
2023-03-31T16:44:00.719Z,2.48
2023-03-31T16:46:28.044Z,2.37
2023-03-31T16:48:54.805Z,2.28
2023-03-31T16:51:21.819Z,2.21
2023-03-31T16:53:48.656Z,2.12
2023-03-31T16:56:16.368Z,2.06
2023-03-31T16:58:43.828Z,1.96
2023-03-31T17:01:11.238Z,1.85
2023-03-31T17:03:41.625Z,1.77
2023-03-31T17:06:12.491Z,1.69
2023-03-31T17:08:40.073Z,1.64
2023-03-31T17:11:14.469Z,1.55
2023-03-31T17:13:42.648Z,1.47
2023-03-31T17:16:20.356Z,1.40
2023-03-31T17:18:51.238Z,1.32
2023-03-31T17:21:22.004Z,1.23
2023-03-31T17:23:49.895Z,1.15
2023-03-31T17:26:18.564Z,1.10
2023-03-31T17:28:45.602Z,1.04
2023-03-31T17:31:14.088Z,1.02
2023-03-31T17:33:41.960Z,0.99
2023-03-31T17:36:08.755Z,0.94
2023-03-31T17:38:35.742Z,0.90
2023-03-31T17:41:06.037Z,0.89
2023-03-31T17:43:33.482Z,0.87
2023-03-31T17:46:05.247Z,0.86
2023-03-31T17:48:34.183Z,0.83
2023-03-31T17:51:08.880Z,0.81
2023-03-31T17:53:36.420Z,0.76
2023-03-31T17:56:04.413Z,0.73
2023-03-31T17:58:32.349Z,0.69
2023-03-31T18:00:59.372Z,0.64
2023-03-31T18:03:29.498Z,0.56
2023-03-31T18:05:56.470Z,0.49
2023-03-31T18:08:23.185Z,0.45
2023-03-31T18:10:50.612Z,0.41
2023-03-31T18:13:18.676Z,0.38
2023-03-31T18:15:52.527Z,0.30
2023-03-31T18:18:20.782Z,0.26
2023-03-31T18:20:47.588Z,0.17
2023-03-31T18:23:14.950Z,0.06
2023-03-31T18:25:46.299Z,-0.06
2023-03-31T18:28:18.264Z,-0.12
2023-03-31T18:30:46.375Z,-0.18
2023-03-31T18:33:13.394Z,-0.19
2023-03-31T18:35:40.480Z,-0.23
2023-03-31T18:38:07.841Z,-0.28
2023-03-31T18:40:34.685Z,-0.30
2023-03-31T18:43:02.748Z,-0.30
2023-03-31T18:45:30.774Z,-0.32
2023-03-31T18:47:57.959Z,-0.34
2023-03-31T18:50:25.945Z,-0.39
2023-03-31T18:52:54.548Z,-0.46
2023-03-31T18:55:22.257Z,-0.52
2023-03-31T18:57:49.352Z,-0.58
2023-03-31T19:00:17.359Z,-0.63
2023-03-31T19:02:44.240Z,-0.66
2023-03-31T19:05:11.174Z,-0.67
2023-03-31T19:07:38.108Z,-0.70
2023-03-31T19:10:05.121Z,-0.75
2023-03-31T19:12:31.774Z,-0.79
2023-03-31T19:14:58.571Z,-0.84
2023-03-31T19:17:25.774Z,-0.84
2023-03-31T19:19:52.722Z,-0.87
2023-03-31T19:22:19.755Z,-0.88
2023-03-31T19:24:46.495Z,-0.91
2023-03-31T19:27:13.221Z,-0.93
2023-03-31T19:29:39.935Z,-0.97
2023-03-31T19:32:07.076Z,-1.00
2023-03-31T19:34:34.281Z,-1.04
2023-03-31T19:37:02.173Z,-1.06
2023-03-31T19:39:29.080Z,-1.12
2023-03-31T19:41:55.816Z,-1.16
2023-03-31T19:44:22.590Z,-1.24
2023-03-31T19:46:49.367Z,-1.25
2023-03-31T19:49:16.547Z,-1.27
2023-03-31T19:51:43.328Z,-1.29
2023-03-31T19:54:11.790Z,-1.33
2023-03-31T19:56:38.979Z,-1.37
2023-03-31T19:59:06.187Z,-1.40
2023-03-31T20:01:33.270Z,-1.42
2023-03-31T20:04:00.316Z,-1.47
2023-03-31T20:06:29.095Z,-1.48
2023-03-31T20:08:58.868Z,-1.47
2023-03-31T20:11:27.034Z,-1.49
2023-03-31T20:13:54.739Z,-1.49
2023-03-31T20:16:23.791Z,-1.48
2023-03-31T20:18:58.789Z,-1.50
2023-03-31T20:21:27.920Z,-1.54
2023-03-31T20:23:56.449Z,-1.62
2023-03-31T20:26:26.500Z,-1.66
2023-03-31T20:28:54.974Z,-1.72
2023-03-31T20:31:26.854Z,-1.73
2023-03-31T20:33:54.792Z,-1.74
2023-03-31T20:36:29.290Z,-1.74
2023-03-31T20:38:57.310Z,-1.73
2023-03-31T20:41:26.911Z,-1.74
2023-03-31T20:43:54.706Z,-1.76
2023-03-31T20:46:22.449Z,-1.79
2023-03-31T20:48:51.487Z,-1.81
2023-03-31T20:51:22.055Z,-1.82
2023-03-31T20:53:52.838Z,-1.84
2023-03-31T20:56:21.150Z,-1.86
2023-03-31T20:58:49.197Z,-1.91
2023-03-31T21:01:17.955Z,-1.92
2023-03-31T21:03:44.959Z,-1.94
2023-03-31T21:06:14.281Z,-1.99
2023-03-31T21:08:43.217Z,-2.04
2023-03-31T21:11:10.101Z,-2.05
2023-03-31T21:13:37.191Z,-2.05
2023-03-31T21:16:04.852Z,-2.07
2023-03-31T21:18:33.985Z,-2.12
2023-03-31T21:21:07.221Z,-2.16
2023-03-31T21:23:34.070Z,-2.20
2023-03-31T21:26:02.658Z,-2.24
2023-03-31T21:28:31.925Z,-2.26
2023-03-31T21:31:04.865Z,-2.26
2023-03-31T21:33:32.804Z,-2.27
2023-03-31T21:35:59.551Z,-2.28
2023-03-31T21:38:27.998Z,-2.30
2023-03-31T21:40:57.706Z,-2.31
2023-03-31T21:43:25.940Z,-2.34
2023-03-31T21:45:57.278Z,-2.40
2023-03-31T21:48:26.353Z,-2.45
2023-03-31T21:50:54.902Z,-2.46
2023-03-31T21:53:23.069Z,-2.49
2023-03-31T21:55:55.603Z,-2.52
2023-03-31T21:58:28.757Z,-2.56
2023-03-31T22:00:58.046Z,-2.59
2023-03-31T22:03:29.220Z,-2.62
2023-03-31T22:05:56.999Z,-2.63
2023-03-31T22:08:24.445Z,-2.65
2023-03-31T22:10:52.162Z,-2.64
2023-03-31T22:13:21.230Z,-2.66
2023-03-31T22:15:48.020Z,-2.68
2023-03-31T22:18:14.871Z,-2.70
2023-03-31T22:20:42.028Z,-2.70
2023-03-31T22:23:10.284Z,-2.71
2023-03-31T22:25:37.266Z,-2.72
2023-03-31T22:28:06.970Z,-2.71
2023-03-31T22:30:34.061Z,-2.74
2023-03-31T22:33:01.037Z,-2.74
2023-03-31T22:35:28.424Z,-2.80
2023-03-31T22:37:55.121Z,-2.81
2023-03-31T22:40:21.969Z,-2.82
2023-03-31T22:42:48.645Z,-2.82
2023-03-31T22:45:15.763Z,-2.80
2023-03-31T22:47:42.658Z,-2.78
2023-03-31T22:50:11.268Z,-2.77
2023-03-31T22:52:38.271Z,-2.82
2023-03-31T22:55:06.327Z,-2.82
2023-03-31T22:57:33.839Z,-2.83
2023-03-31T23:00:00.877Z,-2.82
2023-03-31T23:02:27.647Z,-2.82
2023-03-31T23:04:54.378Z,-2.84
2023-03-31T23:07:22.101Z,-2.88
2023-03-31T23:09:48.981Z,-2.87
2023-03-31T23:12:16.048Z,-2.89
2023-03-31T23:14:42.779Z,-2.91
2023-03-31T23:17:09.464Z,-2.92
2023-03-31T23:19:37.884Z,-2.93
2023-03-31T23:22:05.828Z,-2.94
2023-03-31T23:24:32.557Z,-2.95
2023-03-31T23:26:59.224Z,-2.95
2023-03-31T23:29:25.955Z,-2.95
2023-03-31T23:31:52.756Z,-2.95
2023-03-31T23:34:19.430Z,-2.98
2023-03-31T23:36:46.186Z,-2.98
2023-03-31T23:39:12.821Z,-2.97
2023-03-31T23:41:39.748Z,-3.00
2023-03-31T23:44:06.880Z,-3.05
2023-03-31T23:46:33.875Z,-3.04
2023-03-31T23:49:02.831Z,-3.04
2023-03-31T23:51:29.630Z,-3.05
2023-03-31T23:53:56.428Z,-3.05
2023-03-31T23:56:23.470Z,-3.06
2023-03-31T23:58:50.192Z,-3.08
